Time;durP1;ratioP1;P1;durP2;ratioP2;P2;SDS_P1;SDS_P2;PMS_P1;PMS_P2;Temp;Humidity;BMP_temperature;BMP_pressure;BME280_temperature;BME280_humidity;BME280_pressure;Samples;Min_cycle;Max_cycle;Signal;HPM_P1;HPM_P2
2022/10/28 00:01:10;;;;;;;82.75;36.67;;;5.80;99.90;;;;;;5095657;28;20036;-75
2022/10/28 00:03:44;;;;;;;100.72;41.13;;;5.70;99.90;;;;;;5096969;28;20035;-75
2022/10/28 00:06:19;;;;;;;110.20;44.70;;;5.70;99.90;;;;;;5097171;28;20024;-88
2022/10/28 00:08:45;;;;;;;89.72;40.10;;;5.60;99.90;;;;;;5096882;28;20024;-88
2022/10/28 00:11:20;;;;;;;103.32;41.30;;;5.60;99.90;;;;;;5096881;28;20119;-75
2022/10/28 00:13:46;;;;;;;80.53;39.28;;;5.50;99.90;;;;;;5096785;28;20031;-88
2022/10/28 00:16:21;;;;;;;87.78;40.08;;;5.50;99.90;;;;;;5095565;28;20020;-75
2022/10/28 00:18:47;;;;;;;94.55;39.97;;;5.50;99.90;;;;;;5096797;28;20016;-75
2022/10/28 00:21:22;;;;;;;98.25;37.42;;;5.40;99.90;;;;;;5095594;28;20023;-75
2022/10/28 00:23:48;;;;;;;78.28;32.65;;;5.40;99.90;;;;;;5096879;28;20035;-75
2022/10/28 00:26:17;;;;;;;79.95;35.38;;;5.40;99.90;;;;;;5096521;28;20028;-86
2022/10/28 00:28:46;;;;;;;90.82;35.17;;;5.50;99.90;;;;;;5095089;28;20024;-89
2022/10/28 00:31:13;;;;;;;87.28;36.63;;;5.40;99.90;;;;;;5096495;28;20020;-75
2022/10/28 00:33:39;;;;;;;76.20;34.38;;;5.40;99.90;;;;;;5108532;28;20488;-88
2022/10/28 00:36:23;;;;;;;77.95;31.52;;;5.40;99.90;;;;;;5116889;28;20027;-87
2022/10/28 00:38:51;;;;;;;64.65;29.83;;;5.30;99.90;;;;;;5115489;28;20136;-80
2022/10/28 00:41:31;;;;;;;66.65;30.63;;;5.30;99.90;;;;;;5115480;28;20112;-89
2022/10/28 00:44:00;;;;;;;70.20;33.15;;;5.30;99.90;;;;;;5116651;28;20039;-76
2022/10/28 00:46:45;;;;;;;69.32;33.85;;;5.30;99.90;;;;;;5098281;28;20024;-90
2022/10/28 00:49:22;;;;;;;69.20;29.90;;;5.30;99.90;;;;;;5096204;28;20028;-75
2022/10/28 00:51:53;;;;;;;68.28;29.60;;;5.30;99.90;;;;;;5095794;28;20032;-75
2022/10/28 00:54:20;;;;;;;83.72;34.80;;;5.30;99.90;;;;;;5096046;28;20024;-89
2022/10/28 00:56:52;;;;;;;74.32;33.83;;;5.30;99.90;;;;;;5094756;28;20020;-90
2022/10/28 00:59:48;;;;;;;97.82;35.72;;;5.30;99.90;;;;;;5095842;28;20026;-89
2022/10/28 01:02:15;;;;;;;73.35;31.27;;;5.30;99.90;;;;;;5096072;28;20115;-89
2022/10/28 01:04:41;;;;;;;76.30;34.10;;;5.30;99.90;;;;;;5094405;28;20039;-89
2022/10/28 01:07:08;;;;;;;102.18;34.10;;;5.30;99.90;;;;;;5095774;28;20020;-76
2022/10/28 01:09:33;;;;;;;86.05;33.83;;;5.30;99.90;;;;;;5094317;28;20056;-90
2022/10/28 01:12:11;;;;;;;81.10;32.80;;;5.30;99.90;;;;;;5094459;28;20047;-87
2022/10/28 01:14:59;;;;;;;65.45;30.90;;;5.30;99.90;;;;;;5094457;28;20115;-90
2022/10/28 01:17:52;;;;;;;85.88;37.42;;;5.30;99.90;;;;;;5095862;28;20028;-91
2022/10/28 01:20:38;;;;;;;80.82;28.58;;;5.30;99.90;;;;;;5095888;28;20107;-90
2022/10/28 01:23:19;;;;;;;82.22;32.65;;;5.30;99.90;;;;;;5094185;28;20123;-90
2022/10/28 01:25:53;;;;;;;76.50;31.70;;;5.30;99.90;;;;;;5095493;28;20017;-77
2022/10/28 01:28:27;;;;;;;79.68;32.80;;;5.20;99.90;;;;;;5095477;28;20024;-88
2022/10/28 01:30:59;;;;;;;88.18;36.97;;;5.20;99.90;;;;;;5095365;28;20028;-76
2022/10/28 01:33:49;;;;;;;91.68;40.40;;;5.20;99.90;;;;;;5095600;28;20016;-76
2022/10/28 01:36:32;;;;;;;85.28;38.17;;;5.20;99.90;;;;;;5095477;28;20028;-89
2022/10/28 01:39:27;;;;;;;78.97;34.08;;;5.20;99.90;;;;;;5095131;28;20076;-76
2022/10/28 01:42:20;;;;;;;77.07;33.75;;;5.20;99.90;;;;;;5094965;28;20069;-76
2022/10/28 01:44:57;;;;;;;90.57;35.05;;;5.20;99.90;;;;;;5094852;28;20036;-76
2022/10/28 01:47:46;;;;;;;79.32;37.03;;;5.10;99.90;;;;;;5093802;28;20020;-76
2022/10/28 01:50:22;;;;;;;76.93;34.95;;;5.10;99.90;;;;;;5095095;28;20093;-91
2022/10/28 01:52:51;;;;;;;68.07;30.00;;;5.10;99.90;;;;;;5095051;28;20020;-76
2022/10/28 01:55:22;;;;;;;70.40;28.65;;;5.10;99.90;;;;;;5094642;28;20534;-91
2022/10/28 01:57:50;;;;;;;61.67;28.38;;;5.10;99.90;;;;;;5094959;28;20042;-90
2022/10/28 02:00:15;;;;;;;53.72;26.83;;;5.10;99.90;;;;;;5110534;28;20120;-90
2022/10/28 02:02:42;;;;;;;60.70;30.48;;;5.10;99.90;;;;;;5093142;28;20056;-76
2022/10/28 02:05:39;;;;;;;59.42;29.35;;;5.10;99.90;;;;;;5093614;28;20509;-76
2022/10/28 02:08:16;;;;;;;50.15;27.48;;;5.10;99.90;;;;;;5094925;28;20050;-76
2022/10/28 02:11:06;;;;;;;60.55;28.80;;;5.00;99.90;;;;;;5094594;28;20028;-76
2022/10/28 02:13:43;;;;;;;57.00;27.00;;;5.00;99.90;;;;;;5094450;28;20107;-88
2022/10/28 02:16:42;;;;;;;69.28;32.20;;;5.00;99.90;;;;;;5093080;28;20043;-76
2022/10/28 02:19:29;;;;;;;121.53;37.25;;;4.90;99.90;;;;;;5094597;28;20028;-89
2022/10/28 02:22:13;;;;;;;59.78;29.73;;;4.90;99.90;;;;;;5093236;28;20020;-89
2022/10/28 02:25:06;;;;;;;59.42;29.75;;;4.90;99.90;;;;;;5092956;28;20044;-89
2022/10/28 02:27:53;;;;;;;66.53;31.58;;;4.90;99.90;;;;;;5092960;28;20024;-76
2022/10/28 02:30:21;;;;;;;63.83;30.42;;;4.90;99.90;;;;;;5094426;28;20035;-88
2022/10/28 02:32:51;;;;;;;69.60;30.25;;;4.80;99.90;;;;;;5109641;28;20046;-88
2022/10/28 02:35:24;;;;;;;68.47;33.20;;;4.80;99.90;;;;;;5094281;28;20020;-82
2022/10/28 02:37:52;;;;;;;70.18;31.50;;;4.80;99.90;;;;;;5092784;28;20028;-88
2022/10/28 02:40:23;;;;;;;71.80;31.45;;;4.80;99.90;;;;;;5109550;28;20423;-75
2022/10/28 02:42:57;;;;;;;53.88;27.45;;;4.80;99.90;;;;;;5092653;28;20082;-76
2022/10/28 02:45:30;;;;;;;58.78;26.23;;;4.80;99.90;;;;;;5109650;28;20075;-76
2022/10/28 02:48:04;;;;;;;60.17;26.23;;;4.80;99.90;;;;;;5092717;28;20495;-89
2022/10/28 02:50:37;;;;;;;64.82;27.55;;;4.80;99.90;;;;;;5094004;28;20031;-76
2022/10/28 02:53:10;;;;;;;91.47;31.17;;;4.80;99.90;;;;;;5093873;28;20031;-89
2022/10/28 02:55:41;;;;;;;67.97;27.42;;;4.80;99.90;;;;;;5093883;28;20027;-88
2022/10/28 02:58:07;;;;;;;83.03;26.38;;;4.80;99.90;;;;;;5093805;28;20027;-88
2022/10/28 03:00:33;;;;;;;50.40;23.15;;;4.80;99.90;;;;;;5093885;28;20089;-76
2022/10/28 03:02:58;;;;;;;47.88;24.10;;;4.80;99.90;;;;;;5092436;28;20074;-87
2022/10/28 03:05:24;;;;;;;55.75;23.80;;;4.80;99.90;;;;;;5093663;28;20039;-75
2022/10/28 03:07:50;;;;;;;56.50;25.63;;;4.80;99.90;;;;;;5093575;28;20074;-76
2022/10/28 03:10:16;;;;;;;73.78;25.42;;;4.80;99.90;;;;;;5092336;28;20115;-76
2022/10/28 03:12:41;;;;;;;48.70;21.70;;;4.80;99.90;;;;;;5092209;28;20027;-76
2022/10/28 03:15:07;;;;;;;52.30;23.98;;;4.80;99.90;;;;;;5093237;28;20019;-75
2022/10/28 03:17:33;;;;;;;46.38;22.63;;;4.80;99.90;;;;;;5092079;28;20023;-76
2022/10/28 03:19:59;;;;;;;62.17;26.33;;;4.80;99.90;;;;;;5093481;28;20032;-76
2022/10/28 03:22:24;;;;;;;55.45;25.55;;;4.70;99.90;;;;;;5092134;28;20115;-87
2022/10/28 03:24:50;;;;;;;46.03;21.98;;;4.70;99.90;;;;;;5093401;28;20469;-76
2022/10/28 03:27:15;;;;;;;52.95;24.60;;;4.70;99.90;;;;;;5092038;28;20020;-88
2022/10/28 03:29:41;;;;;;;59.42;25.13;;;4.70;99.90;;;;;;5093353;28;20103;-76
2022/10/28 03:32:07;;;;;;;57.70;24.60;;;4.60;99.90;;;;;;5093377;28;20028;-76
2022/10/28 03:34:32;;;;;;;44.78;23.65;;;4.60;99.90;;;;;;5113645;28;20076;-88
2022/10/28 03:36:58;;;;;;;47.25;24.85;;;4.60;99.90;;;;;;5129535;28;20036;-75
2022/10/28 03:39:23;;;;;;;60.13;25.90;;;4.60;99.90;;;;;;5113678;28;20093;-76
2022/10/28 03:41:49;;;;;;;52.63;23.80;;;4.50;99.90;;;;;;5113554;28;20159;-76
2022/10/28 03:44:14;;;;;;;64.78;27.38;;;4.40;99.90;;;;;;5113462;28;20054;-76
2022/10/28 03:46:40;;;;;;;63.60;26.40;;;4.40;99.90;;;;;;5113716;28;20024;-76
2022/10/28 03:49:06;;;;;;;53.42;26.88;;;4.40;99.90;;;;;;5113629;28;20023;-76
2022/10/28 03:51:31;;;;;;;63.20;30.77;;;4.40;99.90;;;;;;5113735;28;20097;-76
2022/10/28 03:53:57;;;;;;;62.22;29.17;;;4.40;99.90;;;;;;5112312;28;20408;-75
2022/10/28 03:56:22;;;;;;;73.63;30.23;;;4.40;99.90;;;;;;5095973;28;20008;-86
2022/10/28 03:58:48;;;;;;;100.65;29.45;;;4.30;99.90;;;;;;5093062;28;20041;-75
2022/10/28 04:01:14;;;;;;;84.00;31.80;;;4.30;99.90;;;;;;5093051;28;20032;-76
2022/10/28 04:03:40;;;;;;;83.75;31.15;;;4.20;99.90;;;;;;5091562;28;20081;-88
2022/10/28 04:06:05;;;;;;;69.32;32.45;;;4.20;99.90;;;;;;5093061;28;20030;-90
2022/10/28 04:08:31;;;;;;;74.68;33.75;;;4.20;99.90;;;;;;5091700;28;20523;-88
2022/10/28 04:10:57;;;;;;;77.85;32.30;;;4.20;99.90;;;;;;5093094;28;20112;-90
2022/10/28 04:13:22;;;;;;;80.35;32.35;;;4.20;99.90;;;;;;5092894;28;20052;-76
2022/10/28 04:15:48;;;;;;;69.68;32.20;;;4.30;99.90;;;;;;5092987;28;20032;-76
2022/10/28 04:18:14;;;;;;;68.22;30.67;;;4.30;99.90;;;;;;5091631;28;20017;-88
2022/10/28 04:20:39;;;;;;;72.32;33.00;;;4.30;99.90;;;;;;5091734;28;20020;-82
2022/10/28 04:23:05;;;;;;;179.48;43.20;;;4.30;99.90;;;;;;5091702;28;20023;-76
2022/10/28 04:25:31;;;;;;;84.13;33.03;;;4.30;99.90;;;;;;5092649;28;20043;-89
2022/10/28 04:27:56;;;;;;;113.35;39.92;;;4.30;99.90;;;;;;5094977;28;20024;-76
2022/10/28 04:30:22;;;;;;;141.65;46.13;;;4.30;99.90;;;;;;5095242;28;20101;-76
2022/10/28 04:32:48;;;;;;;169.43;49.53;;;4.30;99.90;;;;;;5104020;28;20028;-76
2022/10/28 04:35:13;;;;;;;119.00;42.30;;;4.30;99.90;;;;;;5115524;28;20018;-76
2022/10/28 04:37:40;;;;;;;173.35;48.55;;;4.20;99.90;;;;;;5115324;28;20492;-87
2022/10/28 04:40:06;;;;;;;216.38;51.58;;;4.20;99.90;;;;;;5116570;28;20039;-89
2022/10/28 04:42:32;;;;;;;82.22;34.78;;;4.20;99.90;;;;;;5116718;27;20031;-76
2022/10/28 04:44:58;;;;;;;60.45;27.58;;;4.20;99.90;;;;;;5115233;28;20172;-89
2022/10/28 04:47:24;;;;;;;128.55;38.45;;;4.30;99.90;;;;;;5116775;28;20047;-77
2022/10/28 04:49:49;;;;;;;65.05;33.10;;;4.20;99.90;;;;;;5116515;28;20087;-89
2022/10/28 04:52:15;;;;;;;92.63;40.40;;;4.20;99.90;;;;;;5115452;28;20069;-87
2022/10/28 04:54:40;;;;;;;93.32;36.95;;;4.20;99.90;;;;;;5112884;28;20024;-89
2022/10/28 04:57:06;;;;;;;159.43;48.47;;;4.20;99.90;;;;;;5096016;28;20386;-76
2022/10/28 04:59:32;;;;;;;79.43;36.50;;;4.20;99.90;;;;;;5096005;28;20028;-87
2022/10/28 05:01:57;;;;;;;94.95;31.15;;;4.20;99.90;;;;;;5096030;28;20024;-77
2022/10/28 05:04:23;;;;;;;102.53;30.70;;;4.20;99.90;;;;;;5094363;28;20035;-90
2022/10/28 05:06:48;;;;;;;93.30;32.28;;;4.20;99.90;;;;;;5095812;28;20024;-91
2022/10/28 05:09:14;;;;;;;54.65;26.25;;;4.20;99.90;;;;;;5095195;28;20546;-76
2022/10/28 05:11:40;;;;;;;62.50;29.75;;;4.10;99.90;;;;;;5095743;28;20588;-77
2022/10/28 05:14:05;;;;;;;62.97;27.50;;;4.10;99.90;;;;;;5095949;28;20024;-76
2022/10/28 05:16:31;;;;;;;62.50;28.35;;;4.10;99.90;;;;;;5103930;28;20145;-88
2022/10/28 05:18:57;;;;;;;59.55;31.02;;;4.10;99.90;;;;;;5112043;28;20101;-77
2022/10/28 05:21:23;;;;;;;72.13;32.58;;;4.10;99.90;;;;;;5102840;28;20030;-77
2022/10/28 05:23:48;;;;;;;131.38;52.22;;;4.00;99.90;;;;;;5109683;28;20047;-91
2022/10/28 05:26:14;;;;;;;75.47;33.83;;;4.00;99.90;;;;;;5097113;28;20481;-86
2022/10/28 05:28:39;;;;;;;55.70;28.13;;;4.00;99.90;;;;;;5107980;28;20380;-90
2022/10/28 05:31:05;;;;;;;52.80;26.67;;;4.10;99.90;;;;;;5112272;28;20031;-77
2022/10/28 05:33:32;;;;;;;58.75;26.67;;;4.10;99.90;;;;;;5100716;28;20385;-83
2022/10/28 05:36:01;;;;;;;51.50;24.83;;;4.10;99.90;;;;;;5114377;28;20481;-78
2022/10/28 05:38:26;;;;;;;45.17;21.70;;;4.10;99.90;;;;;;5114452;28;20035;-82
2022/10/28 05:40:52;;;;;;;42.60;21.60;;;4.10;99.90;;;;;;5091564;28;20051;-82
2022/10/28 05:43:18;;;;;;;51.53;22.83;;;4.20;99.90;;;;;;5093490;28;20171;-82
2022/10/28 05:45:50;;;;;;;66.97;21.85;;;4.20;99.90;;;;;;5093584;28;20059;-78
2022/10/28 05:48:15;;;;;;;147.43;32.07;;;4.20;99.90;;;;;;5080169;28;20042;-78
2022/10/28 05:50:41;;;;;;;155.57;32.65;;;4.20;99.90;;;;;;5079587;28;20266;-79
2022/10/28 05:53:07;;;;;;;94.07;29.17;;;4.20;99.90;;;;;;5092562;28;20020;-77
2022/10/28 05:55:34;;;;;;;63.42;28.80;;;4.30;99.90;;;;;;5092873;28;20024;-79
2022/10/28 05:57:59;;;;;;;87.82;29.70;;;4.30;99.90;;;;;;5092971;28;20012;-79
2022/10/28 06:00:25;;;;;;;70.00;31.70;;;4.40;99.90;;;;;;5094115;28;20398;-77
2022/10/28 06:02:51;;;;;;;91.55;32.28;;;4.40;99.90;;;;;;5092916;28;20127;-79
2022/10/28 06:05:17;;;;;;;75.35;29.67;;;4.50;99.90;;;;;;5094032;28;20417;-77
2022/10/28 06:07:43;;;;;;;76.20;29.75;;;4.50;99.90;;;;;;5092681;28;20377;-79
2022/10/28 06:10:10;;;;;;;58.75;28.17;;;4.60;99.90;;;;;;5094494;28;20097;-79
2022/10/28 06:12:35;;;;;;;127.65;33.63;;;4.60;99.90;;;;;;5096538;28;20056;-77
2022/10/28 06:15:01;;;;;;;190.05;37.28;;;4.60;99.90;;;;;;5094615;28;20028;-79
2022/10/28 06:17:27;;;;;;;75.22;27.20;;;4.70;99.90;;;;;;5094286;28;20036;-77
2022/10/28 06:19:53;;;;;;;109.60;31.15;;;4.70;99.90;;;;;;5092933;28;20027;-77
2022/10/28 06:22:18;;;;;;;125.53;32.70;;;4.70;99.90;;;;;;5093040;28;20024;-76
2022/10/28 06:24:44;;;;;;;56.92;26.17;;;4.70;99.90;;;;;;5093077;28;20035;-77
2022/10/28 06:27:10;;;;;;;80.20;31.50;;;4.80;99.90;;;;;;5094306;28;20024;-77
2022/10/28 06:29:35;;;;;;;168.55;44.53;;;4.90;99.90;;;;;;5094166;28;20020;-78
2022/10/28 06:32:01;;;;;;;76.82;32.70;;;4.90;99.90;;;;;;5092797;28;20074;-78
2022/10/28 06:34:26;;;;;;;176.52;43.00;;;4.90;99.90;;;;;;5093032;28;20016;-77
2022/10/28 06:36:53;;;;;;;90.38;31.65;;;5.00;99.90;;;;;;5094341;28;20023;-76
2022/10/28 06:39:18;;;;;;;65.25;27.33;;;4.90;99.90;;;;;;5092009;28;20505;-78
2022/10/28 06:41:44;;;;;;;57.33;25.58;;;5.00;99.90;;;;;;5089348;28;20119;-76
2022/10/28 06:44:09;;;;;;;56.40;26.70;;;5.00;99.90;;;;;;5090440;28;20043;-76
2022/10/28 06:46:35;;;;;;;65.20;28.05;;;5.10;99.90;;;;;;5106318;28;20020;-77
2022/10/28 06:49:03;;;;;;;54.70;26.45;;;5.20;99.90;;;;;;5109359;28;20064;-77
2022/10/28 06:51:30;;;;;;;53.80;25.45;;;5.30;99.90;;;;;;5110156;28;20030;-76
2022/10/28 06:53:55;;;;;;;61.08;31.20;;;5.40;99.90;;;;;;5112463;28;20019;-77
2022/10/28 06:56:21;;;;;;;46.25;25.80;;;5.50;99.90;;;;;;5112963;28;20024;-77
2022/10/28 06:58:51;;;;;;;55.25;27.85;;;5.60;99.90;;;;;;5112936;28;20110;-76
2022/10/28 07:01:17;;;;;;;52.80;27.45;;;5.70;99.90;;;;;;5114112;28;20015;-78
2022/10/28 07:03:42;;;;;;;48.20;26.08;;;5.80;99.90;;;;;;5114047;28;20400;-76
2022/10/28 07:06:09;;;;;;;49.88;27.25;;;5.90;99.90;;;;;;5112881;28;20034;-76
2022/10/28 07:08:34;;;;;;;54.45;31.05;;;6.00;99.90;;;;;;5112765;28;20119;-76
2022/10/28 07:11:01;;;;;;;61.03;32.92;;;6.20;99.90;;;;;;5114129;28;20099;-76
2022/10/28 07:13:27;;;;;;;62.03;32.85;;;6.30;99.90;;;;;;5112709;28;20019;-76
2022/10/28 07:15:57;;;;;;;60.83;29.40;;;6.40;99.90;;;;;;5114118;28;20028;-78
2022/10/28 07:18:26;;;;;;;50.85;28.15;;;6.50;99.90;;;;;;5113988;28;20477;-76
2022/10/28 07:20:51;;;;;;;55.67;31.45;;;6.70;99.90;;;;;;5112605;28;20019;-75
2022/10/28 07:23:17;;;;;;;55.85;29.70;;;6.90;99.90;;;;;;5113841;28;20027;-76
2022/10/28 07:25:50;;;;;;;56.35;29.88;;;7.00;99.90;;;;;;5109032;28;20111;-78
2022/10/28 07:28:16;;;;;;;54.58;28.55;;;7.20;99.90;;;;;;5093559;28;20028;-77
2022/10/28 07:30:41;;;;;;;57.17;30.77;;;7.40;99.90;;;;;;5093392;28;20028;-76
2022/10/28 07:33:07;;;;;;;60.53;33.13;;;7.60;99.90;;;;;;5104647;28;20019;-78
2022/10/28 07:35:32;;;;;;;62.65;35.08;;;7.80;99.90;;;;;;5113683;28;20106;-77
2022/10/28 07:37:58;;;;;;;66.97;37.53;;;8.00;99.90;;;;;;5112554;28;20020;-76
2022/10/28 07:40:24;;;;;;;72.03;43.92;;;8.20;99.90;;;;;;5113795;28;20079;-78
2022/10/28 07:42:50;;;;;;;73.13;43.40;;;8.40;99.90;;;;;;5129499;28;20035;-78
2022/10/28 07:45:16;;;;;;;72.82;41.95;;;8.50;99.90;;;;;;5113466;28;20036;-77
2022/10/28 07:47:43;;;;;;;73.55;41.47;;;8.70;99.90;;;;;;5112320;28;20031;-75
2022/10/28 07:50:10;;;;;;;70.85;41.10;;;8.80;99.90;;;;;;5112458;28;20110;-77
2022/10/28 07:52:37;;;;;;;70.43;41.35;;;9.00;99.90;;;;;;5112241;28;20019;-75
2022/10/28 07:55:04;;;;;;;68.85;39.97;;;9.20;99.90;;;;;;5113685;28;20057;-77
2022/10/28 07:57:29;;;;;;;64.05;40.60;;;9.30;99.90;;;;;;5113462;28;20024;-75
2022/10/28 07:59:55;;;;;;;63.75;40.03;;;9.50;99.90;;;;;;5113597;28;20034;-77
2022/10/28 08:02:23;;;;;;;64.78;37.70;;;9.50;99.90;;;;;;5113628;28;20093;-77
2022/10/28 08:04:48;;;;;;;56.55;34.35;;;9.70;99.90;;;;;;5117468;28;20038;-75
2022/10/28 08:07:14;;;;;;;55.75;33.22;;;9.80;99.90;;;;;;5117593;28;20024;-77
2022/10/28 08:09:40;;;;;;;54.92;33.50;;;9.90;99.90;;;;;;5116084;28;20039;-77
2022/10/28 08:12:07;;;;;;;45.60;30.30;;;10.10;99.90;;;;;;5133291;27;20012;-76
2022/10/28 08:14:33;;;;;;;40.90;27.58;;;10.20;99.90;;;;;;5117401;28;20062;-75
2022/10/28 08:16:59;;;;;;;43.47;28.20;;;10.30;99.90;;;;;;5116087;28;20027;-77
2022/10/28 08:19:25;;;;;;;43.08;26.60;;;10.40;99.90;;;;;;5115959;28;20027;-76
2022/10/28 08:21:51;;;;;;;35.88;24.10;;;10.60;99.90;;;;;;5117182;28;20090;-78
2022/10/28 08:24:16;;;;;;;33.58;23.00;;;10.70;99.90;;;;;;5117138;28;20057;-77
2022/10/28 08:26:42;;;;;;;30.60;22.73;;;10.70;99.90;;;;;;5105079;28;20421;-77
2022/10/28 08:29:11;;;;;;;34.88;23.40;;;10.80;99.90;;;;;;5096696;28;20027;-75
2022/10/28 08:31:37;;;;;;;33.97;23.05;;;10.80;99.90;;;;;;5095298;28;20420;-78
2022/10/28 08:34:04;;;;;;;35.35;22.15;;;10.90;99.90;;;;;;5114845;28;20073;-75
2022/10/28 08:36:30;;;;;;;33.88;22.83;;;11.00;99.90;;;;;;5115740;28;20020;-78
2022/10/28 08:39:00;;;;;;;29.50;20.77;;;11.10;99.90;;;;;;5116901;28;20459;-75
2022/10/28 08:41:39;;;;;;;31.88;21.23;;;11.20;99.90;;;;;;5116912;28;20027;-75
2022/10/28 08:44:14;;;;;;;34.33;22.25;;;11.30;99.90;;;;;;5115500;28;20508;-75
2022/10/28 08:46:59;;;;;;;29.65;20.77;;;11.40;99.90;;;;;;5115468;28;20031;-75
2022/10/28 08:49:26;;;;;;;31.25;22.42;;;11.50;99.90;;;;;;5108536;28;20495;-75
2022/10/28 08:51:54;;;;;;;27.88;21.20;;;11.60;99.90;;;;;;5096270;28;20032;-77
2022/10/28 08:54:30;;;;;;;30.27;21.65;;;11.70;99.90;;;;;;5094912;28;20128;-77
2022/10/28 08:56:59;;;;;;;33.35;20.83;;;11.70;99.90;;;;;;5095155;28;20028;-74
2022/10/28 08:59:34;;;;;;;30.80;21.23;;;11.90;99.90;;;;;;5096134;28;20094;-76
2022/10/28 09:02:10;;;;;;;29.70;19.80;;;11.90;99.90;;;;;;5096130;28;20431;-76
2022/10/28 09:04:42;;;;;;;25.92;17.80;;;12.10;99.90;;;;;;5096004;28;20055;-75
2022/10/28 09:07:17;;;;;;;29.60;19.17;;;12.20;99.90;;;;;;5095760;28;20031;-76
2022/10/28 09:09:43;;;;;;;25.77;17.42;;;12.30;99.90;;;;;;5094636;28;20077;-76
2022/10/28 09:12:26;;;;;;;28.70;19.55;;;12.50;99.90;;;;;;5094554;28;20031;-75
2022/10/28 09:15:01;;;;;;;24.25;16.30;;;12.50;99.90;;;;;;5095927;28;20142;-74
2022/10/28 09:18:11;;;;;;;24.70;17.48;;;12.60;99.90;;;;;;5094513;28;20389;-76
2022/10/28 09:20:54;;;;;;;24.35;15.93;;;12.60;99.90;;;;;;5104907;28;20070;-75
2022/10/28 09:23:20;;;;;;;;;;;12.60;99.90;;;;;;5094746;28;20031;-77
2022/10/28 09:26:12;;;;;;;26.77;17.67;;;12.70;99.90;;;;;;5095437;28;20289;-76
2022/10/28 09:28:47;;;;;;;25.92;15.55;;;12.80;99.90;;;;;;5095670;28;20107;-74
2022/10/28 09:31:34;;;;;;;25.80;16.35;;;12.90;99.90;;;;;;5095697;28;20020;-77
2022/10/28 09:34:27;;;;;;;23.45;15.30;;;12.90;99.90;;;;;;5094110;28;20078;-75
2022/10/28 09:36:56;;;;;;;;;;;13.00;99.90;;;;;;5094692;28;20024;-76
2022/10/28 09:39:28;;;;;;;25.30;16.25;;;13.10;99.90;;;;;;5095170;28;19916;-74
2022/10/28 09:41:56;;;;;;;23.05;16.52;;;13.30;99.90;;;;;;5094279;28;20093;-74
2022/10/28 09:44:40;;;;;;;23.48;14.93;;;13.40;99.90;;;;;;5095081;28;20024;-76
2022/10/28 09:47:18;;;;;;;22.38;15.65;;;13.60;99.90;;;;;;5094117;28;20373;-76
2022/10/28 09:49:46;;;;;;;24.17;14.10;;;13.70;99.90;;;;;;5093739;28;20465;-74
2022/10/28 09:52:25;;;;;;;20.55;13.60;;;13.90;99.90;;;;;;5095171;28;20505;-74
2022/10/28 09:54:53;;;;;;;23.40;13.23;;;14.10;99.90;;;;;;5095257;28;20020;-76
2022/10/28 09:57:19;;;;;;;19.95;13.93;;;14.20;99.90;;;;;;5093796;28;20040;-74
2022/10/28 09:59:45;;;;;;;22.88;13.45;;;14.30;99.90;;;;;;5094914;28;20024;-74
2022/10/28 10:02:25;;;;;;;17.85;12.68;;;14.50;99.90;;;;;;5110719;28;20432;-77
2022/10/28 10:04:52;;;;;;;18.83;12.13;;;14.60;99.90;;;;;;5093429;28;20516;-74
2022/10/28 10:07:30;;;;;;;15.20;11.00;;;14.70;99.90;;;;;;5094929;28;20024;-74
2022/10/28 10:09:58;;;;;;;18.38;11.85;;;14.90;99.90;;;;;;5094780;28;20052;-76
2022/10/28 10:12:25;;;;;;;20.10;11.25;;;15.00;99.90;;;;;;5093592;28;20027;-76
2022/10/28 10:14:55;;;;;;;18.73;12.13;;;15.10;99.90;;;;;;5093277;28;20110;-74
2022/10/28 10:17:28;;;;;;;13.98;9.98;;;15.20;99.90;;;;;;5094637;28;20395;-77
2022/10/28 10:19:58;;;;;;;15.18;10.77;;;15.30;99.90;;;;;;5107647;28;20100;-77
2022/10/28 10:22:39;;;;;;;15.57;8.90;;;15.40;99.90;;;;;;5101975;28;20075;-74
2022/10/28 10:25:17;;;;;;;15.02;9.02;;;15.50;99.90;;;;;;5104288;28;20051;-78
2022/10/28 10:27:53;;;;;;;14.20;8.90;;;15.50;99.90;;;;;;5098358;28;20062;-73
2022/10/28 10:30:30;;;;;;;13.55;9.15;;;15.60;99.90;;;;;;5097280;28;20027;-74
2022/10/28 10:32:57;;;;;;;11.43;8.20;;;15.70;99.90;;;;;;5089278;28;20562;-74
2022/10/28 10:35:27;;;;;;;13.32;8.52;;;15.70;99.90;;;;;;5095725;28;20028;-73
2022/10/28 10:37:55;;;;;;;16.45;9.13;;;15.80;99.90;;;;;;5106209;28;20527;-78
2022/10/28 10:40:37;;;;;;;11.40;7.70;;;16.00;99.90;;;;;;5103022;28;20128;-77
2022/10/28 10:43:34;;;;;;;14.17;7.63;;;16.10;99.90;;;;;;5107351;28;20040;-77
2022/10/28 10:45:59;;;;;;;13.15;8.32;;;16.20;99.90;;;;;;5092388;28;20032;-74
2022/10/28 10:48:26;;;;;;;13.45;7.95;;;16.30;99.90;;;;;;5111115;28;20127;-77
2022/10/28 10:50:53;;;;;;;11.55;7.32;;;16.40;99.90;;;;;;5097014;28;20505;-77
2022/10/28 10:53:27;;;;;;;10.80;6.80;;;16.50;99.90;;;;;;5099213;28;20124;-76
2022/10/28 10:56:05;;;;;;;10.32;7.78;;;16.60;99.90;;;;;;5101086;28;20473;-76
2022/10/28 10:58:38;;;;;;;10.18;7.38;;;16.70;99.90;;;;;;5109552;28;20020;-74
2022/10/28 11:01:06;;;;;;;10.30;7.75;;;16.80;99.90;;;;;;5102915;28;20099;-75
2022/10/28 11:03:53;;;;;;;12.40;6.57;;;16.90;99.90;;;;;;5108291;28;20049;-74
2022/10/28 11:06:24;;;;;;;10.30;6.93;;;17.10;99.90;;;;;;5114098;28;20051;-74
2022/10/28 11:08:56;;;;;;;11.32;7.57;;;17.30;99.90;;;;;;5113873;28;20020;-74
2022/10/28 11:11:37;;;;;;;12.77;7.25;;;17.40;99.90;;;;;;5112477;28;20023;-77
2022/10/28 11:14:36;;;;;;;12.23;6.45;;;17.60;99.90;;;;;;5113038;28;20027;-77
2022/10/28 11:17:02;;;;;;;10.30;5.82;;;17.70;99.90;;;;;;5111770;28;20065;-77
2022/10/28 11:19:30;;;;;;;7.80;5.53;;;17.70;99.90;;;;;;5106048;28;20016;-76
2022/10/28 11:22:20;;;;;;;7.65;5.45;;;17.70;99.90;;;;;;5113576;28;20358;-76
2022/10/28 11:25:09;;;;;;;8.63;5.95;;;17.50;98.80;;;;;;5113461;28;20077;-74
2022/10/28 11:27:49;;;;;;;9.38;6.05;;;17.50;99.90;;;;;;5101873;28;20059;-76
2022/10/28 11:30:21;;;;;;;6.82;6.00;;;17.40;99.90;;;;;;5094550;28;20500;-72
2022/10/28 11:32:49;;;;;;;9.85;6.20;;;17.50;99.90;;;;;;5103801;28;20012;-74
2022/10/28 11:35:34;;;;;;;12.75;6.47;;;17.40;99.90;;;;;;5110288;28;20036;-72
2022/10/28 11:37:59;;;;;;;9.65;5.70;;;17.40;99.90;;;;;;5120360;28;20499;-76
2022/10/28 11:40:26;;;;;;;9.60;6.07;;;17.40;99.90;;;;;;5109690;28;20043;-77
2022/10/28 11:43:18;;;;;;;9.02;5.97;;;17.40;99.90;;;;;;5108413;28;20038;-72
2022/10/28 11:46:04;;;;;;;13.82;7.50;;;17.50;99.90;;;;;;5115061;28;20504;-72
2022/10/28 11:48:57;;;;;;;11.95;6.90;;;17.50;99.90;;;;;;5116529;28;20043;-72
2022/10/28 11:51:34;;;;;;;9.48;6.72;;;17.50;99.90;;;;;;5116202;28;20547;-76
2022/10/28 11:54:19;;;;;;;9.07;6.25;;;17.50;99.90;;;;;;5112302;28;20019;-75
2022/10/28 11:56:54;;;;;;;10.55;7.20;;;17.50;99.90;;;;;;5118549;28;20047;-74
2022/10/28 11:59:32;;;;;;;13.18;7.13;;;17.50;99.90;;;;;;5119558;28;20026;-72
2022/10/28 12:02:53;;;;;;;8.63;6.70;;;17.50;99.90;;;;;;5120280;28;20433;-73
2022/10/28 12:05:22;;;;;;;7.55;6.38;;;17.50;99.90;;;;;;5103637;28;20052;-74
2022/10/28 12:08:14;;;;;;;9.60;5.65;;;17.50;99.90;;;;;;5104043;28;20032;-73
2022/10/28 12:10:45;;;;;;;9.57;6.63;;;17.50;99.90;;;;;;5103542;28;20016;-74
2022/10/28 12:13:23;;;;;;;7.25;5.97;;;17.50;99.90;;;;;;5118271;28;20028;-75
2022/10/28 12:16:11;;;;;;;9.05;6.57;;;17.50;99.90;;;;;;5104045;28;20085;-72
2022/10/28 12:18:45;;;;;;;11.10;4.95;;;17.50;99.90;;;;;;5095860;28;20040;-72
2022/10/28 12:21:28;;;;;;;8.20;5.38;;;17.50;99.90;;;;;;5118431;28;20022;-77
2022/10/28 12:23:57;;;;;;;7.72;5.50;;;17.50;99.90;;;;;;5119917;27;20032;-73
2022/10/28 12:26:36;;;;;;;11.23;5.95;;;17.50;99.90;;;;;;5108926;28;20024;-73
2022/10/28 12:29:08;;;;;;;8.80;5.57;;;17.50;99.90;;;;;;5117109;28;20047;-75
2022/10/28 12:31:41;;;;;;;9.38;6.20;;;17.40;99.90;;;;;;5115949;28;20415;-75
2022/10/28 12:34:23;;;;;;;11.00;6.05;;;17.40;99.90;;;;;;5093664;28;20024;-72
2022/10/28 12:37:01;;;;;;;11.25;6.72;;;17.40;99.90;;;;;;5108084;28;20054;-73
2022/10/28 12:40:00;;;;;;;10.27;6.22;;;17.40;99.90;;;;;;5110077;28;20052;-72
2022/10/28 12:42:34;;;;;;;11.07;6.63;;;17.40;99.90;;;;;;5102299;28;20036;-75
2022/10/28 12:45:05;;;;;;;7.03;5.93;;;17.40;99.90;;;;;;5112191;28;20051;-75
2022/10/28 12:47:45;;;;;;;8.88;5.45;;;17.50;99.90;;;;;;5107763;28;20110;-77
2022/10/28 12:50:18;;;;;;;9.85;5.93;;;17.50;99.90;;;;;;5110977;28;20431;-73
2022/10/28 12:52:51;;;;;;;8.68;5.63;;;17.50;99.90;;;;;;5109923;28;20065;-73
2022/10/28 12:55:25;;;;;;;;;;;17.50;99.90;;;;;;5104017;28;20028;-73
2022/10/28 12:58:08;;;;;;;14.80;6.05;;;17.50;99.90;;;;;;5106894;28;19908;-76